sensor_id;sensor_type;location;lat;lon;timestamp;P1;durP1;ratioP1;P2;durP2;ratioP2
52866;SDS011;38739;53.324;6.862;2024-03-02T00:00:07;8.68;;;5.45;;
52866;SDS011;38739;53.324;6.862;2024-03-02T00:02:43;8.27;;;5.43;;
52866;SDS011;38739;53.324;6.862;2024-03-02T00:05:13;8.88;;;5.72;;
52866;SDS011;38739;53.324;6.862;2024-03-02T00:07:43;8.02;;;5.82;;
52866;SDS011;38739;53.324;6.862;2024-03-02T00:10:22;7.72;;;5.88;;
52866;SDS011;38739;53.324;6.862;2024-03-02T00:12:54;11.95;;;6.75;;
52866;SDS011;38739;53.324;6.862;2024-03-02T00:18:26;12.13;;;7.28;;
52866;SDS011;38739;53.324;6.862;2024-03-02T00:20:58;10.32;;;7.05;;
52866;SDS011;38739;53.324;6.862;2024-03-02T00:23:27;10.85;;;7.40;;
52866;SDS011;38739;53.324;6.862;2024-03-02T00:25:54;12.35;;;7.55;;
52866;SDS011;38739;53.324;6.862;2024-03-02T00:28:21;10.90;;;8.02;;
52866;SDS011;38739;53.324;6.862;2024-03-02T00:30:51;10.85;;;8.07;;
52866;SDS011;38739;53.324;6.862;2024-03-02T00:33:22;11.10;;;7.60;;
52866;SDS011;38739;53.324;6.862;2024-03-02T00:35:48;11.57;;;8.13;;
52866;SDS011;38739;53.324;6.862;2024-03-02T00:38:15;13.77;;;8.65;;
52866;SDS011;38739;53.324;6.862;2024-03-02T00:40:44;13.35;;;8.57;;
52866;SDS011;38739;53.324;6.862;2024-03-02T00:45:58;18.58;;;8.65;;
52866;SDS011;38739;53.324;6.862;2024-03-02T00:48:24;13.57;;;8.85;;
52866;SDS011;38739;53.324;6.862;2024-03-02T00:50:51;12.63;;;8.63;;
52866;SDS011;38739;53.324;6.862;2024-03-02T00:53:17;13.55;;;8.73;;
52866;SDS011;38739;53.324;6.862;2024-03-02T00:55:48;13.43;;;8.95;;
52866;SDS011;38739;53.324;6.862;2024-03-02T00:58:14;13.27;;;9.13;;
52866;SDS011;38739;53.324;6.862;2024-03-02T01:00:40;13.90;;;8.95;;
52866;SDS011;38739;53.324;6.862;2024-03-02T01:03:06;13.45;;;8.40;;
52866;SDS011;38739;53.324;6.862;2024-03-02T01:05:33;13.20;;;8.40;;
52866;SDS011;38739;53.324;6.862;2024-03-02T01:07:59;13.02;;;8.43;;
52866;SDS011;38739;53.324;6.862;2024-03-02T01:10:24;12.25;;;8.43;;
52866;SDS011;38739;53.324;6.862;2024-03-02T01:12:51;12.23;;;7.90;;
52866;SDS011;38739;53.324;6.862;2024-03-02T01:15:17;11.73;;;8.20;;
52866;SDS011;38739;53.324;6.862;2024-03-02T01:17:42;11.30;;;7.50;;
52866;SDS011;38739;53.324;6.862;2024-03-02T01:20:08;12.00;;;7.55;;
52866;SDS011;38739;53.324;6.862;2024-03-02T01:22:34;11.88;;;7.90;;
52866;SDS011;38739;53.324;6.862;2024-03-02T01:25:01;11.18;;;7.75;;
52866;SDS011;38739;53.324;6.862;2024-03-02T01:27:27;10.82;;;7.88;;
52866;SDS011;38739;53.324;6.862;2024-03-02T01:29:53;11.68;;;7.75;;
52866;SDS011;38739;53.324;6.862;2024-03-02T01:32:19;10.07;;;7.50;;
52866;SDS011;38739;53.324;6.862;2024-03-02T01:34:46;14.27;;;7.90;;
52866;SDS011;38739;53.324;6.862;2024-03-02T01:37:11;10.43;;;7.10;;
52866;SDS011;38739;53.324;6.862;2024-03-02T01:39:37;10.85;;;7.60;;
52866;SDS011;38739;53.324;6.862;2024-03-02T01:42:02;9.88;;;7.30;;
52866;SDS011;38739;53.324;6.862;2024-03-02T01:44:28;9.63;;;6.93;;
52866;SDS011;38739;53.324;6.862;2024-03-02T01:46:54;10.02;;;7.10;;
52866;SDS011;38739;53.324;6.862;2024-03-02T01:49:20;9.57;;;7.07;;
52866;SDS011;38739;53.324;6.862;2024-03-02T01:51:46;11.18;;;7.00;;
52866;SDS011;38739;53.324;6.862;2024-03-02T01:54:11;10.57;;;7.38;;
52866;SDS011;38739;53.324;6.862;2024-03-02T01:56:37;11.48;;;6.53;;
52866;SDS011;38739;53.324;6.862;2024-03-02T01:59:03;10.35;;;6.60;;
52866;SDS011;38739;53.324;6.862;2024-03-02T02:01:29;10.13;;;6.90;;
52866;SDS011;38739;53.324;6.862;2024-03-02T02:03:56;8.23;;;6.40;;
52866;SDS011;38739;53.324;6.862;2024-03-02T02:06:21;8.63;;;6.20;;
52866;SDS011;38739;53.324;6.862;2024-03-02T02:08:47;8.98;;;6.35;;
52866;SDS011;38739;53.324;6.862;2024-03-02T02:11:16;9.23;;;6.40;;
52866;SDS011;38739;53.324;6.862;2024-03-02T02:13:42;8.68;;;6.22;;
52866;SDS011;38739;53.324;6.862;2024-03-02T02:16:08;8.80;;;6.20;;
52866;SDS011;38739;53.324;6.862;2024-03-02T02:18:34;9.05;;;6.63;;
52866;SDS011;38739;53.324;6.862;2024-03-02T02:21:01;9.52;;;6.30;;
52866;SDS011;38739;53.324;6.862;2024-03-02T02:23:27;9.43;;;6.55;;
52866;SDS011;38739;53.324;6.862;2024-03-02T02:25:53;10.43;;;6.20;;
52866;SDS011;38739;53.324;6.862;2024-03-02T02:28:19;9.05;;;5.65;;
52866;SDS011;38739;53.324;6.862;2024-03-02T02:30:45;10.60;;;6.15;;
52866;SDS011;38739;53.324;6.862;2024-03-02T02:33:11;9.73;;;5.78;;
52866;SDS011;38739;53.324;6.862;2024-03-02T02:35:37;9.43;;;5.95;;
52866;SDS011;38739;53.324;6.862;2024-03-02T02:38:02;8.88;;;5.93;;
52866;SDS011;38739;53.324;6.862;2024-03-02T02:40:28;8.48;;;5.50;;
52866;SDS011;38739;53.324;6.862;2024-03-02T02:42:57;9.75;;;5.88;;
52866;SDS011;38739;53.324;6.862;2024-03-02T02:45:24;9.38;;;5.90;;
52866;SDS011;38739;53.324;6.862;2024-03-02T02:47:50;8.65;;;5.72;;
52866;SDS011;38739;53.324;6.862;2024-03-02T02:50:16;8.15;;;5.63;;
52866;SDS011;38739;53.324;6.862;2024-03-02T02:52:42;7.55;;;5.07;;
52866;SDS011;38739;53.324;6.862;2024-03-02T02:55:09;8.25;;;5.53;;
52866;SDS011;38739;53.324;6.862;2024-03-02T02:57:35;6.82;;;4.97;;
52866;SDS011;38739;53.324;6.862;2024-03-02T03:00:04;7.75;;;5.30;;
52866;SDS011;38739;53.324;6.862;2024-03-02T03:02:38;6.65;;;5.00;;
52866;SDS011;38739;53.324;6.862;2024-03-02T03:05:06;6.43;;;4.85;;
52866;SDS011;38739;53.324;6.862;2024-03-02T03:07:33;5.80;;;4.72;;
52866;SDS011;38739;53.324;6.862;2024-03-02T03:10:02;6.97;;;4.75;;
52866;SDS011;38739;53.324;6.862;2024-03-02T03:12:29;5.82;;;4.28;;
52866;SDS011;38739;53.324;6.862;2024-03-02T03:14:56;6.75;;;4.60;;
52866;SDS011;38739;53.324;6.862;2024-03-02T03:17:22;6.43;;;5.13;;
52866;SDS011;38739;53.324;6.862;2024-03-02T03:19:48;6.20;;;4.43;;
52866;SDS011;38739;53.324;6.862;2024-03-02T03:22:15;7.72;;;4.40;;
52866;SDS011;38739;53.324;6.862;2024-03-02T03:24:40;6.00;;;4.20;;
52866;SDS011;38739;53.324;6.862;2024-03-02T03:27:06;5.90;;;4.32;;
52866;SDS011;38739;53.324;6.862;2024-03-02T03:29:32;7.28;;;4.30;;
52866;SDS011;38739;53.324;6.862;2024-03-02T03:31:58;6.25;;;4.10;;
52866;SDS011;38739;53.324;6.862;2024-03-02T03:34:23;5.50;;;4.22;;
52866;SDS011;38739;53.324;6.862;2024-03-02T03:36:49;6.43;;;4.50;;
52866;SDS011;38739;53.324;6.862;2024-03-02T03:39:15;7.28;;;4.53;;
52866;SDS011;38739;53.324;6.862;2024-03-02T03:41:41;6.45;;;4.18;;
52866;SDS011;38739;53.324;6.862;2024-03-02T03:44:06;5.25;;;4.10;;
52866;SDS011;38739;53.324;6.862;2024-03-02T03:46:32;4.97;;;4.05;;
52866;SDS011;38739;53.324;6.862;2024-03-02T03:48:58;6.18;;;4.13;;
52866;SDS011;38739;53.324;6.862;2024-03-02T03:51:24;8.73;;;4.38;;
52866;SDS011;38739;53.324;6.862;2024-03-02T03:53:50;4.38;;;3.70;;
52866;SDS011;38739;53.324;6.862;2024-03-02T03:56:15;7.32;;;4.38;;
52866;SDS011;38739;53.324;6.862;2024-03-02T03:58:41;5.13;;;3.78;;
52866;SDS011;38739;53.324;6.862;2024-03-02T04:01:06;4.93;;;3.60;;
52866;SDS011;38739;53.324;6.862;2024-03-02T04:03:33;5.80;;;4.03;;
52866;SDS011;38739;53.324;6.862;2024-03-02T04:05:59;5.25;;;4.05;;
52866;SDS011;38739;53.324;6.862;2024-03-02T04:08:25;7.57;;;4.03;;
52866;SDS011;38739;53.324;6.862;2024-03-02T04:10:50;5.10;;;3.72;;
52866;SDS011;38739;53.324;6.862;2024-03-02T04:13:16;6.15;;;3.92;;
52866;SDS011;38739;53.324;6.862;2024-03-02T04:15:41;4.63;;;3.85;;
52866;SDS011;38739;53.324;6.862;2024-03-02T04:18:07;5.20;;;3.92;;
52866;SDS011;38739;53.324;6.862;2024-03-02T04:20:33;7.43;;;4.10;;
52866;SDS011;38739;53.324;6.862;2024-03-02T04:22:59;5.65;;;3.83;;
52866;SDS011;38739;53.324;6.862;2024-03-02T04:25:24;5.35;;;3.78;;
52866;SDS011;38739;53.324;6.862;2024-03-02T04:27:50;4.53;;;3.55;;
52866;SDS011;38739;53.324;6.862;2024-03-02T04:30:16;6.05;;;4.07;;
52866;SDS011;38739;53.324;6.862;2024-03-02T04:32:41;5.35;;;3.75;;
52866;SDS011;38739;53.324;6.862;2024-03-02T04:35:11;7.05;;;4.47;;
52866;SDS011;38739;53.324;6.862;2024-03-02T04:37:37;6.65;;;3.78;;
52866;SDS011;38739;53.324;6.862;2024-03-02T04:40:04;5.72;;;3.90;;
52866;SDS011;38739;53.324;6.862;2024-03-02T04:42:33;4.90;;;3.78;;
52866;SDS011;38739;53.324;6.862;2024-03-02T04:44:59;5.70;;;3.78;;
52866;SDS011;38739;53.324;6.862;2024-03-02T04:47:25;5.80;;;3.97;;
52866;SDS011;38739;53.324;6.862;2024-03-02T04:49:51;5.65;;;4.13;;
52866;SDS011;38739;53.324;6.862;2024-03-02T04:52:17;4.85;;;3.63;;
52866;SDS011;38739;53.324;6.862;2024-03-02T04:54:43;6.88;;;3.83;;
52866;SDS011;38739;53.324;6.862;2024-03-02T04:57:27;6.78;;;3.70;;
52866;SDS011;38739;53.324;6.862;2024-03-02T04:59:53;5.05;;;3.90;;
52866;SDS011;38739;53.324;6.862;2024-03-02T05:02:18;5.28;;;3.97;;
52866;SDS011;38739;53.324;6.862;2024-03-02T05:04:44;5.55;;;4.00;;
52866;SDS011;38739;53.324;6.862;2024-03-02T05:07:10;5.07;;;3.75;;
52866;SDS011;38739;53.324;6.862;2024-03-02T05:09:36;6.03;;;4.15;;
52866;SDS011;38739;53.324;6.862;2024-03-02T05:12:01;5.07;;;3.88;;
52866;SDS011;38739;53.324;6.862;2024-03-02T05:14:46;5.03;;;4.07;;
52866;SDS011;38739;53.324;6.862;2024-03-02T05:17:11;5.25;;;3.50;;
52866;SDS011;38739;53.324;6.862;2024-03-02T05:19:37;5.75;;;3.88;;
52866;SDS011;38739;53.324;6.862;2024-03-02T05:22:03;6.32;;;3.70;;
52866;SDS011;38739;53.324;6.862;2024-03-02T05:24:30;6.63;;;3.90;;
52866;SDS011;38739;53.324;6.862;2024-03-02T05:26:56;5.75;;;3.95;;
52866;SDS011;38739;53.324;6.862;2024-03-02T05:29:22;5.45;;;3.97;;
52866;SDS011;38739;53.324;6.862;2024-03-02T05:31:48;6.57;;;4.03;;
52866;SDS011;38739;53.324;6.862;2024-03-02T05:34:14;5.97;;;3.70;;
52866;SDS011;38739;53.324;6.862;2024-03-02T05:36:39;6.30;;;4.20;;
52866;SDS011;38739;53.324;6.862;2024-03-02T05:39:05;5.65;;;3.83;;
52866;SDS011;38739;53.324;6.862;2024-03-02T05:41:34;4.72;;;3.60;;
52866;SDS011;38739;53.324;6.862;2024-03-02T05:44:00;6.05;;;3.80;;
52866;SDS011;38739;53.324;6.862;2024-03-02T05:46:26;6.75;;;4.28;;
52866;SDS011;38739;53.324;6.862;2024-03-02T05:48:52;5.68;;;3.83;;
52866;SDS011;38739;53.324;6.862;2024-03-02T05:51:18;5.13;;;3.70;;
52866;SDS011;38739;53.324;6.862;2024-03-02T05:53:44;6.13;;;3.67;;
52866;SDS011;38739;53.324;6.862;2024-03-02T05:56:10;6.20;;;3.80;;
52866;SDS011;38739;53.324;6.862;2024-03-02T05:58:37;8.05;;;4.07;;
52866;SDS011;38739;53.324;6.862;2024-03-02T06:01:18;6.72;;;3.75;;
52866;SDS011;38739;53.324;6.862;2024-03-02T06:03:44;7.38;;;3.65;;
52866;SDS011;38739;53.324;6.862;2024-03-02T06:06:10;5.88;;;3.83;;
52866;SDS011;38739;53.324;6.862;2024-03-02T06:08:35;4.75;;;3.80;;
52866;SDS011;38739;53.324;6.862;2024-03-02T06:11:01;6.07;;;3.95;;
52866;SDS011;38739;53.324;6.862;2024-03-02T06:13:27;5.13;;;3.80;;
52866;SDS011;38739;53.324;6.862;2024-03-02T06:15:52;5.82;;;3.90;;
52866;SDS011;38739;53.324;6.862;2024-03-02T06:18:18;6.45;;;3.80;;
52866;SDS011;38739;53.324;6.862;2024-03-02T06:20:44;5.57;;;3.80;;
52866;SDS011;38739;53.324;6.862;2024-03-02T06:23:10;5.93;;;3.95;;
52866;SDS011;38739;53.324;6.862;2024-03-02T06:25:35;6.13;;;3.97;;
52866;SDS011;38739;53.324;6.862;2024-03-02T06:28:01;6.93;;;4.45;;
52866;SDS011;38739;53.324;6.862;2024-03-02T06:30:27;5.70;;;3.75;;
52866;SDS011;38739;53.324;6.862;2024-03-02T06:32:53;6.30;;;4.30;;
52866;SDS011;38739;53.324;6.862;2024-03-02T06:35:18;6.53;;;3.97;;
52866;SDS011;38739;53.324;6.862;2024-03-02T06:37:44;6.25;;;3.90;;
52866;SDS011;38739;53.324;6.862;2024-03-02T06:40:10;8.32;;;4.35;;
52866;SDS011;38739;53.324;6.862;2024-03-02T06:42:36;5.93;;;4.05;;
52866;SDS011;38739;53.324;6.862;2024-03-02T06:45:02;5.38;;;3.83;;
52866;SDS011;38739;53.324;6.862;2024-03-02T06:47:28;6.38;;;3.50;;
52866;SDS011;38739;53.324;6.862;2024-03-02T06:49:56;6.05;;;3.97;;
52866;SDS011;38739;53.324;6.862;2024-03-02T06:52:23;6.18;;;3.85;;
52866;SDS011;38739;53.324;6.862;2024-03-02T06:54:49;6.10;;;4.18;;
52866;SDS011;38739;53.324;6.862;2024-03-02T06:57:15;7.35;;;4.03;;
52866;SDS011;38739;53.324;6.862;2024-03-02T06:59:42;5.53;;;4.00;;
52866;SDS011;38739;53.324;6.862;2024-03-02T07:02:07;6.35;;;3.78;;
52866;SDS011;38739;53.324;6.862;2024-03-02T07:04:34;6.55;;;4.20;;
52866;SDS011;38739;53.324;6.862;2024-03-02T07:06:59;7.07;;;4.50;;
52866;SDS011;38739;53.324;6.862;2024-03-02T07:09:25;5.82;;;4.20;;
52866;SDS011;38739;53.324;6.862;2024-03-02T07:11:51;9.13;;;4.40;;
52866;SDS011;38739;53.324;6.862;2024-03-02T07:14:16;6.57;;;4.00;;
52866;SDS011;38739;53.324;6.862;2024-03-02T07:16:42;7.78;;;4.78;;
52866;SDS011;38739;53.324;6.862;2024-03-02T07:19:08;7.13;;;4.57;;
52866;SDS011;38739;53.324;6.862;2024-03-02T07:21:34;7.22;;;4.22;;
52866;SDS011;38739;53.324;6.862;2024-03-02T07:24:00;6.30;;;4.53;;
52866;SDS011;38739;53.324;6.862;2024-03-02T07:26:29;5.95;;;4.30;;
52866;SDS011;38739;53.324;6.862;2024-03-02T07:28:56;7.40;;;4.30;;
52866;SDS011;38739;53.324;6.862;2024-03-02T07:31:22;7.35;;;4.40;;
52866;SDS011;38739;53.324;6.862;2024-03-02T07:33:48;5.45;;;4.45;;
52866;SDS011;38739;53.324;6.862;2024-03-02T07:36:14;6.75;;;4.57;;
52866;SDS011;38739;53.324;6.862;2024-03-02T07:38:40;7.30;;;4.60;;
52866;SDS011;38739;53.324;6.862;2024-03-02T07:41:06;6.63;;;4.40;;
52866;SDS011;38739;53.324;6.862;2024-03-02T07:43:32;7.65;;;4.70;;
52866;SDS011;38739;53.324;6.862;2024-03-02T07:45:58;6.35;;;4.68;;
52866;SDS011;38739;53.324;6.862;2024-03-02T07:48:24;7.18;;;4.63;;
52866;SDS011;38739;53.324;6.862;2024-03-02T07:50:50;7.90;;;4.70;;
52866;SDS011;38739;53.324;6.862;2024-03-02T07:53:16;7.75;;;4.70;;
52866;SDS011;38739;53.324;6.862;2024-03-02T07:55:42;7.78;;;4.72;;
52866;SDS011;38739;53.324;6.862;2024-03-02T07:58:08;7.07;;;4.20;;
52866;SDS011;38739;53.324;6.862;2024-03-02T08:00:34;5.93;;;4.05;;
52866;SDS011;38739;53.324;6.862;2024-03-02T08:03:00;7.45;;;4.25;;
52866;SDS011;38739;53.324;6.862;2024-03-02T08:05:26;7.25;;;4.47;;
52866;SDS011;38739;53.324;6.862;2024-03-02T08:07:52;6.53;;;4.13;;
52866;SDS011;38739;53.324;6.862;2024-03-02T08:10:18;7.43;;;4.65;;
52866;SDS011;38739;53.324;6.862;2024-03-02T08:12:44;7.07;;;4.32;;
52866;SDS011;38739;53.324;6.862;2024-03-02T08:15:10;5.03;;;3.85;;
52866;SDS011;38739;53.324;6.862;2024-03-02T08:17:38;5.97;;;4.20;;
52866;SDS011;38739;53.324;6.862;2024-03-02T08:20:10;6.57;;;4.45;;
52866;SDS011;38739;53.324;6.862;2024-03-02T08:22:36;7.72;;;4.40;;
52866;SDS011;38739;53.324;6.862;2024-03-02T08:25:02;6.53;;;4.22;;
52866;SDS011;38739;53.324;6.862;2024-03-02T08:27:29;6.72;;;4.30;;
52866;SDS011;38739;53.324;6.862;2024-03-02T08:29:54;8.25;;;4.38;;
52866;SDS011;38739;53.324;6.862;2024-03-02T08:32:20;5.95;;;3.90;;
52866;SDS011;38739;53.324;6.862;2024-03-02T08:34:46;6.07;;;4.05;;
52866;SDS011;38739;53.324;6.862;2024-03-02T08:37:11;6.85;;;4.43;;
52866;SDS011;38739;53.324;6.862;2024-03-02T08:39:37;5.05;;;3.92;;
52866;SDS011;38739;53.324;6.862;2024-03-02T08:42:03;5.00;;;4.10;;
52866;SDS011;38739;53.324;6.862;2024-03-02T08:44:29;6.63;;;4.20;;
52866;SDS011;38739;53.324;6.862;2024-03-02T08:46:55;4.30;;;3.80;;
52866;SDS011;38739;53.324;6.862;2024-03-02T08:49:21;5.82;;;4.05;;
52866;SDS011;38739;53.324;6.862;2024-03-02T08:51:47;5.90;;;4.15;;
52866;SDS011;38739;53.324;6.862;2024-03-02T08:54:20;6.38;;;4.35;;
52866;SDS011;38739;53.324;6.862;2024-03-02T08:56:47;5.75;;;4.18;;
52866;SDS011;38739;53.324;6.862;2024-03-02T08:59:15;6.38;;;4.00;;
52866;SDS011;38739;53.324;6.862;2024-03-02T09:01:41;5.15;;;3.70;;
52866;SDS011;38739;53.324;6.862;2024-03-02T09:04:08;5.25;;;3.42;;
52866;SDS011;38739;53.324;6.862;2024-03-02T09:06:34;6.35;;;3.35;;
52866;SDS011;38739;53.324;6.862;2024-03-02T09:09:00;5.85;;;3.50;;
52866;SDS011;38739;53.324;6.862;2024-03-02T09:11:26;5.35;;;3.22;;
52866;SDS011;38739;53.324;6.862;2024-03-02T09:13:52;6.75;;;3.75;;
52866;SDS011;38739;53.324;6.862;2024-03-02T09:16:18;5.93;;;3.53;;
52866;SDS011;38739;53.324;6.862;2024-03-02T09:18:44;5.20;;;3.65;;
52866;SDS011;38739;53.324;6.862;2024-03-02T09:21:10;7.25;;;4.20;;
52866;SDS011;38739;53.324;6.862;2024-03-02T09:23:36;6.63;;;3.97;;
52866;SDS011;38739;53.324;6.862;2024-03-02T09:26:01;6.18;;;4.13;;
52866;SDS011;38739;53.324;6.862;2024-03-02T09:28:28;5.68;;;3.95;;
52866;SDS011;38739;53.324;6.862;2024-03-02T09:30:54;6.07;;;3.88;;
52866;SDS011;38739;53.324;6.862;2024-03-02T09:33:19;4.75;;;3.67;;
52866;SDS011;38739;53.324;6.862;2024-03-02T09:35:45;5.63;;;3.97;;
52866;SDS011;38739;53.324;6.862;2024-03-02T09:38:11;6.05;;;3.80;;
52866;SDS011;38739;53.324;6.862;2024-03-02T09:40:37;5.70;;;3.70;;
52866;SDS011;38739;53.324;6.862;2024-03-02T09:43:02;5.43;;;3.78;;
52866;SDS011;38739;53.324;6.862;2024-03-02T09:45:28;5.05;;;3.42;;
52866;SDS011;38739;53.324;6.862;2024-03-02T09:47:55;5.85;;;3.30;;
52866;SDS011;38739;53.324;6.862;2024-03-02T09:50:21;4.03;;;2.85;;
52866;SDS011;38739;53.324;6.862;2024-03-02T09:52:50;5.05;;;2.47;;
52866;SDS011;38739;53.324;6.862;2024-03-02T09:55:17;5.30;;;2.88;;
52866;SDS011;38739;53.324;6.862;2024-03-02T09:57:44;3.38;;;2.40;;
52866;SDS011;38739;53.324;6.862;2024-03-02T10:00:11;3.20;;;1.90;;
52866;SDS011;38739;53.324;6.862;2024-03-02T10:02:40;5.78;;;2.22;;
52866;SDS011;38739;53.324;6.862;2024-03-02T10:05:07;2.50;;;1.67;;
52866;SDS011;38739;53.324;6.862;2024-03-02T10:07:34;3.15;;;1.60;;
52866;SDS011;38739;53.324;6.862;2024-03-02T10:10:00;3.65;;;2.00;;
52866;SDS011;38739;53.324;6.862;2024-03-02T10:12:41;2.85;;;1.20;;
52866;SDS011;38739;53.324;6.862;2024-03-02T10:15:07;2.25;;;1.10;;
52866;SDS011;38739;53.324;6.862;2024-03-02T10:17:34;2.42;;;1.48;;
52866;SDS011;38739;53.324;6.862;2024-03-02T10:20:04;2.72;;;1.50;;
52866;SDS011;38739;53.324;6.862;2024-03-02T10:22:49;3.60;;;1.67;;
52866;SDS011;38739;53.324;6.862;2024-03-02T10:25:30;2.60;;;1.38;;
52866;SDS011;38739;53.324;6.862;2024-03-02T10:27:57;2.65;;;1.33;;
52866;SDS011;38739;53.324;6.862;2024-03-02T10:30:25;3.75;;;1.63;;
52866;SDS011;38739;53.324;6.862;2024-03-02T10:32:54;2.95;;;1.58;;
52866;SDS011;38739;53.324;6.862;2024-03-02T10:35:23;3.10;;;1.30;;
52866;SDS011;38739;53.324;6.862;2024-03-02T10:37:49;2.65;;;1.50;;
52866;SDS011;38739;53.324;6.862;2024-03-02T10:40:15;2.22;;;1.80;;
52866;SDS011;38739;53.324;6.862;2024-03-02T10:42:42;3.20;;;1.77;;
52866;SDS011;38739;53.324;6.862;2024-03-02T10:45:09;3.17;;;2.00;;
52866;SDS011;38739;53.324;6.862;2024-03-02T10:47:36;4.40;;;1.90;;
52866;SDS011;38739;53.324;6.862;2024-03-02T10:50:06;3.28;;;1.70;;
52866;SDS011;38739;53.324;6.862;2024-03-02T10:52:36;4.47;;;1.58;;
52866;SDS011;38739;53.324;6.862;2024-03-02T10:55:03;2.45;;;1.50;;
52866;SDS011;38739;53.324;6.862;2024-03-02T10:58:04;4.30;;;1.40;;
52866;SDS011;38739;53.324;6.862;2024-03-02T11:00:26;2.60;;;1.95;;
52866;SDS011;38739;53.324;6.862;2024-03-02T11:03:00;2.53;;;1.50;;
52866;SDS011;38739;53.324;6.862;2024-03-02T11:05:36;4.35;;;1.70;;
52866;SDS011;38739;53.324;6.862;2024-03-02T11:08:07;2.78;;;1.48;;
52866;SDS011;38739;53.324;6.862;2024-03-02T11:10:50;2.40;;;1.60;;
52866;SDS011;38739;53.324;6.862;2024-03-02T11:13:18;4.97;;;1.67;;
52866;SDS011;38739;53.324;6.862;2024-03-02T11:15:49;3.97;;;1.35;;
52866;SDS011;38739;53.324;6.862;2024-03-02T11:18:18;2.72;;;1.48;;
52866;SDS011;38739;53.324;6.862;2024-03-02T11:20:44;2.78;;;1.40;;
52866;SDS011;38739;53.324;6.862;2024-03-02T11:23:11;3.08;;;1.20;;
52866;SDS011;38739;53.324;6.862;2024-03-02T11:25:37;1.77;;;1.08;;
52866;SDS011;38739;53.324;6.862;2024-03-02T11:28:05;4.47;;;1.35;;
52866;SDS011;38739;53.324;6.862;2024-03-02T11:33:06;2.47;;;1.30;;
52866;SDS011;38739;53.324;6.862;2024-03-02T11:35:33;5.22;;;1.40;;
52866;SDS011;38739;53.324;6.862;2024-03-02T11:38:02;2.33;;;0.90;;
52866;SDS011;38739;53.324;6.862;2024-03-02T11:40:29;5.88;;;1.33;;
52866;SDS011;38739;53.324;6.862;2024-03-02T11:42:56;2.05;;;1.20;;
52866;SDS011;38739;53.324;6.862;2024-03-02T11:45:22;4.15;;;1.50;;
52866;SDS011;38739;53.324;6.862;2024-03-02T11:47:55;2.88;;;1.70;;
52866;SDS011;38739;53.324;6.862;2024-03-02T11:55:37;3.90;;;2.10;;
52866;SDS011;38739;53.324;6.862;2024-03-02T11:58:04;3.33;;;2.30;;
52866;SDS011;38739;53.324;6.862;2024-03-02T12:00:31;3.92;;;2.17;;
52866;SDS011;38739;53.324;6.862;2024-03-02T12:03:04;4.90;;;2.70;;
52866;SDS011;38739;53.324;6.862;2024-03-02T12:05:31;3.38;;;2.58;;
52866;SDS011;38739;53.324;6.862;2024-03-02T12:07:57;3.42;;;2.50;;
52866;SDS011;38739;53.324;6.862;2024-03-02T12:10:24;3.10;;;2.33;;
52866;SDS011;38739;53.324;6.862;2024-03-02T12:12:57;4.13;;;2.65;;
52866;SDS011;38739;53.324;6.862;2024-03-02T12:15:28;6.53;;;2.20;;
52866;SDS011;38739;53.324;6.862;2024-03-02T12:17:59;3.25;;;2.45;;
52866;SDS011;38739;53.324;6.862;2024-03-02T12:20:27;3.58;;;2.22;;
52866;SDS011;38739;53.324;6.862;2024-03-02T12:22:54;4.45;;;2.20;;
52866;SDS011;38739;53.324;6.862;2024-03-02T12:25:23;3.75;;;2.22;;
52866;SDS011;38739;53.324;6.862;2024-03-02T12:27:50;6.35;;;2.30;;
52866;SDS011;38739;53.324;6.862;2024-03-02T12:30:17;4.07;;;1.95;;
52866;SDS011;38739;53.324;6.862;2024-03-02T12:32:44;4.97;;;3.63;;
52866;SDS011;38739;53.324;6.862;2024-03-02T12:35:12;3.95;;;2.55;;
52866;SDS011;38739;53.324;6.862;2024-03-02T12:37:45;6.35;;;3.35;;
52866;SDS011;38739;53.324;6.862;2024-03-02T12:40:13;6.47;;;3.60;;
52866;SDS011;38739;53.324;6.862;2024-03-02T12:42:39;5.47;;;3.08;;
52866;SDS011;38739;53.324;6.862;2024-03-02T12:45:07;4.65;;;2.90;;
52866;SDS011;38739;53.324;6.862;2024-03-02T12:47:33;3.58;;;2.58;;
52866;SDS011;38739;53.324;6.862;2024-03-02T12:50:00;3.83;;;2.75;;
52866;SDS011;38739;53.324;6.862;2024-03-02T12:52:26;4.32;;;3.30;;
52866;SDS011;38739;53.324;6.862;2024-03-02T12:54:52;3.80;;;3.28;;
52866;SDS011;38739;53.324;6.862;2024-03-02T12:57:20;3.65;;;3.03;;
52866;SDS011;38739;53.324;6.862;2024-03-02T12:59:46;4.68;;;2.80;;
52866;SDS011;38739;53.324;6.862;2024-03-02T13:02:19;5.82;;;3.17;;
52866;SDS011;38739;53.324;6.862;2024-03-02T13:04:51;3.83;;;2.92;;
52866;SDS011;38739;53.324;6.862;2024-03-02T13:07:19;4.30;;;2.88;;
52866;SDS011;38739;53.324;6.862;2024-03-02T13:09:52;4.57;;;2.90;;
52866;SDS011;38739;53.324;6.862;2024-03-02T13:12:20;4.22;;;2.70;;
52866;SDS011;38739;53.324;6.862;2024-03-02T13:14:51;4.25;;;2.55;;
52866;SDS011;38739;53.324;6.862;2024-03-02T13:17:17;4.65;;;2.60;;
52866;SDS011;38739;53.324;6.862;2024-03-02T13:19:53;2.92;;;2.20;;
52866;SDS011;38739;53.324;6.862;2024-03-02T13:22:23;6.10;;;2.40;;
52866;SDS011;38739;53.324;6.862;2024-03-02T13:24:50;4.65;;;2.40;;
52866;SDS011;38739;53.324;6.862;2024-03-02T13:27:16;3.35;;;2.30;;
52866;SDS011;38739;53.324;6.862;2024-03-02T13:29:46;3.00;;;2.30;;
52866;SDS011;38739;53.324;6.862;2024-03-02T13:32:15;3.35;;;2.03;;
52866;SDS011;38739;53.324;6.862;2024-03-02T13:34:41;3.35;;;2.00;;
52866;SDS011;38739;53.324;6.862;2024-03-02T13:37:08;4.35;;;1.83;;
52866;SDS011;38739;53.324;6.862;2024-03-02T13:39:33;2.20;;;1.90;;
52866;SDS011;38739;53.324;6.862;2024-03-02T13:42:05;3.50;;;2.30;;
52866;SDS011;38739;53.324;6.862;2024-03-02T13:44:33;4.35;;;2.10;;
52866;SDS011;38739;53.324;6.862;2024-03-02T13:47:00;5.25;;;2.45;;
52866;SDS011;38739;53.324;6.862;2024-03-02T13:49:26;3.72;;;2.10;;
52866;SDS011;38739;53.324;6.862;2024-03-02T13:52:05;2.95;;;2.20;;
52866;SDS011;38739;53.324;6.862;2024-03-02T13:54:41;3.33;;;2.13;;
52866;SDS011;38739;53.324;6.862;2024-03-02T13:57:09;3.30;;;2.22;;
52866;SDS011;38739;53.324;6.862;2024-03-02T13:59:35;5.88;;;2.58;;
52866;SDS011;38739;53.324;6.862;2024-03-02T14:02:02;3.17;;;2.15;;
52866;SDS011;38739;53.324;6.862;2024-03-02T14:04:34;3.83;;;2.40;;
52866;SDS011;38739;53.324;6.862;2024-03-02T14:07:01;4.15;;;2.60;;
52866;SDS011;38739;53.324;6.862;2024-03-02T14:09:27;3.60;;;2.53;;
52866;SDS011;38739;53.324;6.862;2024-03-02T14:11:53;3.85;;;2.63;;
52866;SDS011;38739;53.324;6.862;2024-03-02T14:14:20;2.90;;;2.50;;
52866;SDS011;38739;53.324;6.862;2024-03-02T14:16:46;3.75;;;2.50;;
52866;SDS011;38739;53.324;6.862;2024-03-02T14:19:12;4.60;;;2.83;;
52866;SDS011;38739;53.324;6.862;2024-03-02T14:21:38;2.97;;;2.67;;
52866;SDS011;38739;53.324;6.862;2024-03-02T14:24:04;4.15;;;2.60;;
52866;SDS011;38739;53.324;6.862;2024-03-02T14:26:32;3.58;;;3.08;;
52866;SDS011;38739;53.324;6.862;2024-03-02T14:28:58;3.85;;;2.88;;
52866;SDS011;38739;53.324;6.862;2024-03-02T14:31:26;4.35;;;2.85;;
52866;SDS011;38739;53.324;6.862;2024-03-02T14:33:52;5.03;;;2.92;;
52866;SDS011;38739;53.324;6.862;2024-03-02T14:36:18;4.00;;;2.53;;
52866;SDS011;38739;53.324;6.862;2024-03-02T14:38:44;4.82;;;3.00;;
52866;SDS011;38739;53.324;6.862;2024-03-02T14:41:10;5.15;;;3.03;;
52866;SDS011;38739;53.324;6.862;2024-03-02T14:43:36;5.70;;;3.08;;
52866;SDS011;38739;53.324;6.862;2024-03-02T14:46:03;2.83;;;2.50;;
52866;SDS011;38739;53.324;6.862;2024-03-02T14:48:29;4.97;;;3.03;;
52866;SDS011;38739;53.324;6.862;2024-03-02T14:50:55;3.28;;;2.60;;
52866;SDS011;38739;53.324;6.862;2024-03-02T14:53:21;4.60;;;2.67;;
52866;SDS011;38739;53.324;6.862;2024-03-02T14:55:46;3.60;;;2.90;;
52866;SDS011;38739;53.324;6.862;2024-03-02T14:58:12;2.90;;;2.55;;